sensor_id;sensor_type;location;lat;lon;timestamp;P1;P2;P0
57451;PMS7003;54295;51.224;-0.164;2022-09-21T00:01:11;8;8;
57451;PMS7003;54295;51.224;-0.164;2022-09-21T00:03:41;9;9;
57451;PMS7003;54295;51.224;-0.164;2022-09-21T00:06:10;10;9;
57451;PMS7003;54295;51.224;-0.164;2022-09-21T00:08:38;12;11;
57451;PMS7003;54295;51.224;-0.164;2022-09-21T00:11:06;11;9;
57451;PMS7003;54295;51.224;-0.164;2022-09-21T00:13:36;9;9;
57451;PMS7003;54295;51.224;-0.164;2022-09-21T00:16:04;13;10;
57451;PMS7003;54295;51.224;-0.164;2022-09-21T00:18:32;9;9;
57451;PMS7003;54295;51.224;-0.164;2022-09-21T00:20:59;10;9;
57451;PMS7003;54295;51.224;-0.164;2022-09-21T00:23:26;10;9;
57451;PMS7003;54295;51.224;-0.164;2022-09-21T00:26:02;11;9;
57451;PMS7003;54295;51.224;-0.164;2022-09-21T00:28:30;9;9;
57451;PMS7003;54295;51.224;-0.164;2022-09-21T00:30:59;10;10;
57451;PMS7003;54295;51.224;-0.164;2022-09-21T00:33:27;10;10;
57451;PMS7003;54295;51.224;-0.164;2022-09-21T00:35:55;11;11;
57451;PMS7003;54295;51.224;-0.164;2022-09-21T00:38:26;11;9;
57451;PMS7003;54295;51.224;-0.164;2022-09-21T00:40:53;10;10;
57451;PMS7003;54295;51.224;-0.164;2022-09-21T00:43:21;10;10;
57451;PMS7003;54295;51.224;-0.164;2022-09-21T00:45:48;7;7;
57451;PMS7003;54295;51.224;-0.164;2022-09-21T00:48:19;9;9;
57451;PMS7003;54295;51.224;-0.164;2022-09-21T00:50:47;11;10;
57451;PMS7003;54295;51.224;-0.164;2022-09-21T00:53:17;9;9;
57451;PMS7003;54295;51.224;-0.164;2022-09-21T00:55:46;9;9;
57451;PMS7003;54295;51.224;-0.164;2022-09-21T00:58:17;8;8;
57451;PMS7003;54295;51.224;-0.164;2022-09-21T01:00:47;11;9;
57451;PMS7003;54295;51.224;-0.164;2022-09-21T01:03:14;9;9;
57451;PMS7003;54295;51.224;-0.164;2022-09-21T01:05:41;8;8;
57451;PMS7003;54295;51.224;-0.164;2022-09-21T01:08:09;9;8;
57451;PMS7003;54295;51.224;-0.164;2022-09-21T01:10:40;12;10;
57451;PMS7003;54295;51.224;-0.164;2022-09-21T01:13:24;10;10;
57451;PMS7003;54295;51.224;-0.164;2022-09-21T01:16:03;10;8;
57451;PMS7003;54295;51.224;-0.164;2022-09-21T01:18:37;7;7;
57451;PMS7003;54295;51.224;-0.164;2022-09-21T01:21:14;10;9;
57451;PMS7003;54295;51.224;-0.164;2022-09-21T01:23:51;10;9;
57451;PMS7003;54295;51.224;-0.164;2022-09-21T01:27:45;11;10;
57451;PMS7003;54295;51.224;-0.164;2022-09-21T01:30:19;11;9;
57451;PMS7003;54295;51.224;-0.164;2022-09-21T01:32:50;11;9;
57451;PMS7003;54295;51.224;-0.164;2022-09-21T01:35:22;9;8;
57451;PMS7003;54295;51.224;-0.164;2022-09-21T01:37:55;7;7;
57451;PMS7003;54295;51.224;-0.164;2022-09-21T01:40:25;8;8;
57451;PMS7003;54295;51.224;-0.164;2022-09-21T01:42:56;8;8;
57451;PMS7003;54295;51.224;-0.164;2022-09-21T01:45:25;6;6;
57451;PMS7003;54295;51.224;-0.164;2022-09-21T01:47:58;8;8;
57451;PMS7003;54295;51.224;-0.164;2022-09-21T01:50:29;10;9;
57451;PMS7003;54295;51.224;-0.164;2022-09-21T01:53:02;10;10;
57451;PMS7003;54295;51.224;-0.164;2022-09-21T01:55:34;7;7;
57451;PMS7003;54295;51.224;-0.164;2022-09-21T01:58:09;7;6;
57451;PMS7003;54295;51.224;-0.164;2022-09-21T02:00:41;10;8;
57451;PMS7003;54295;51.224;-0.164;2022-09-21T02:03:13;7;7;
57451;PMS7003;54295;51.224;-0.164;2022-09-21T02:05:46;9;9;
57451;PMS7003;54295;51.224;-0.164;2022-09-21T02:08:14;9;8;
57451;PMS7003;54295;51.224;-0.164;2022-09-21T02:10:42;10;10;
57451;PMS7003;54295;51.224;-0.164;2022-09-21T02:13:13;9;8;
57451;PMS7003;54295;51.224;-0.164;2022-09-21T02:15:47;7;7;
57451;PMS7003;54295;51.224;-0.164;2022-09-21T02:18:39;10;7;
57451;PMS7003;54295;51.224;-0.164;2022-09-21T02:21:14;10;9;
57451;PMS7003;54295;51.224;-0.164;2022-09-21T02:23:48;9;8;
57451;PMS7003;54295;51.224;-0.164;2022-09-21T02:26:22;9;8;
57451;PMS7003;54295;51.224;-0.164;2022-09-21T02:28:55;7;7;
57451;PMS7003;54295;51.224;-0.164;2022-09-21T02:31:29;9;9;
57451;PMS7003;54295;51.224;-0.164;2022-09-21T02:34:03;7;7;
57451;PMS7003;54295;51.224;-0.164;2022-09-21T02:36:41;7;7;
57451;PMS7003;54295;51.224;-0.164;2022-09-21T02:39:15;8;8;
57451;PMS7003;54295;51.224;-0.164;2022-09-21T02:41:48;11;9;
57451;PMS7003;54295;51.224;-0.164;2022-09-21T02:44:27;9;8;
57451;PMS7003;54295;51.224;-0.164;2022-09-21T02:47:02;9;8;
57451;PMS7003;54295;51.224;-0.164;2022-09-21T02:49:35;8;8;
57451;PMS7003;54295;51.224;-0.164;2022-09-21T02:52:07;7;7;
57451;PMS7003;54295;51.224;-0.164;2022-09-21T02:54:38;7;7;
57451;PMS7003;54295;51.224;-0.164;2022-09-21T02:57:08;9;9;
57451;PMS7003;54295;51.224;-0.164;2022-09-21T02:59:36;8;8;
57451;PMS7003;54295;51.224;-0.164;2022-09-21T03:02:03;10;10;
57451;PMS7003;54295;51.224;-0.164;2022-09-21T03:04:31;11;9;
57451;PMS7003;54295;51.224;-0.164;2022-09-21T03:06:58;7;7;
57451;PMS7003;54295;51.224;-0.164;2022-09-21T03:09:25;9;8;
57451;PMS7003;54295;51.224;-0.164;2022-09-21T03:11:52;8;7;
57451;PMS7003;54295;51.224;-0.164;2022-09-21T03:14:19;10;9;
57451;PMS7003;54295;51.224;-0.164;2022-09-21T03:16:46;8;8;
57451;PMS7003;54295;51.224;-0.164;2022-09-21T03:19:14;8;8;
57451;PMS7003;54295;51.224;-0.164;2022-09-21T03:21:41;8;8;
57451;PMS7003;54295;51.224;-0.164;2022-09-21T03:24:08;10;10;
57451;PMS7003;54295;51.224;-0.164;2022-09-21T03:26:35;12;10;
57451;PMS7003;54295;51.224;-0.164;2022-09-21T03:29:03;10;9;
57451;PMS7003;54295;51.224;-0.164;2022-09-21T03:31:30;11;10;
57451;PMS7003;54295;51.224;-0.164;2022-09-21T03:33:57;12;11;
57451;PMS7003;54295;51.224;-0.164;2022-09-21T03:36:24;8;8;
57451;PMS7003;54295;51.224;-0.164;2022-09-21T03:38:52;8;8;
57451;PMS7003;54295;51.224;-0.164;2022-09-21T03:41:19;11;11;
57451;PMS7003;54295;51.224;-0.164;2022-09-21T03:43:46;9;8;
57451;PMS7003;54295;51.224;-0.164;2022-09-21T03:46:13;8;8;
57451;PMS7003;54295;51.224;-0.164;2022-09-21T03:48:41;8;8;
57451;PMS7003;54295;51.224;-0.164;2022-09-21T03:51:08;10;9;
57451;PMS7003;54295;51.224;-0.164;2022-09-21T03:53:35;9;9;
57451;PMS7003;54295;51.224;-0.164;2022-09-21T03:56:03;11;10;
57451;PMS7003;54295;51.224;-0.164;2022-09-21T03:58:30;7;7;
57451;PMS7003;54295;51.224;-0.164;2022-09-21T04:01:00;10;10;
57451;PMS7003;54295;51.224;-0.164;2022-09-21T04:03:28;10;10;
57451;PMS7003;54295;51.224;-0.164;2022-09-21T04:05:55;10;9;
57451;PMS7003;54295;51.224;-0.164;2022-09-21T04:08:22;10;9;
57451;PMS7003;54295;51.224;-0.164;2022-09-21T04:10:49;8;8;
57451;PMS7003;54295;51.224;-0.164;2022-09-21T04:13:17;10;10;
57451;PMS7003;54295;51.224;-0.164;2022-09-21T04:15:44;9;9;
57451;PMS7003;54295;51.224;-0.164;2022-09-21T04:18:11;10;10;
57451;PMS7003;54295;51.224;-0.164;2022-09-21T04:20:38;9;9;
57451;PMS7003;54295;51.224;-0.164;2022-09-21T04:23:06;9;9;
57451;PMS7003;54295;51.224;-0.164;2022-09-21T04:25:33;9;8;
57451;PMS7003;54295;51.224;-0.164;2022-09-21T04:28:00;9;8;
57451;PMS7003;54295;51.224;-0.164;2022-09-21T04:30:27;10;10;
57451;PMS7003;54295;51.224;-0.164;2022-09-21T04:32:54;9;9;
57451;PMS7003;54295;51.224;-0.164;2022-09-21T04:35:21;9;8;
57451;PMS7003;54295;51.224;-0.164;2022-09-21T04:37:49;10;9;
57451;PMS7003;54295;51.224;-0.164;2022-09-21T04:40:20;11;9;
57451;PMS7003;54295;51.224;-0.164;2022-09-21T04:42:49;7;7;
57451;PMS7003;54295;51.224;-0.164;2022-09-21T04:45:17;8;7;
57451;PMS7003;54295;51.224;-0.164;2022-09-21T04:47:44;9;8;
57451;PMS7003;54295;51.224;-0.164;2022-09-21T04:50:11;8;8;
57451;PMS7003;54295;51.224;-0.164;2022-09-21T04:52:38;9;8;
57451;PMS7003;54295;51.224;-0.164;2022-09-21T04:55:06;9;8;
57451;PMS7003;54295;51.224;-0.164;2022-09-21T04:57:34;10;9;
57451;PMS7003;54295;51.224;-0.164;2022-09-21T05:00:01;11;10;
57451;PMS7003;54295;51.224;-0.164;2022-09-21T05:02:28;9;9;
57451;PMS7003;54295;51.224;-0.164;2022-09-21T05:04:56;8;8;
57451;PMS7003;54295;51.224;-0.164;2022-09-21T05:07:23;8;8;
57451;PMS7003;54295;51.224;-0.164;2022-09-21T05:09:50;8;7;
57451;PMS7003;54295;51.224;-0.164;2022-09-21T05:12:17;10;10;
57451;PMS7003;54295;51.224;-0.164;2022-09-21T05:14:45;9;9;
57451;PMS7003;54295;51.224;-0.164;2022-09-21T05:17:12;8;8;
57451;PMS7003;54295;51.224;-0.164;2022-09-21T05:19:39;10;10;
57451;PMS7003;54295;51.224;-0.164;2022-09-21T05:22:06;9;8;
57451;PMS7003;54295;51.224;-0.164;2022-09-21T05:24:33;9;9;
57451;PMS7003;54295;51.224;-0.164;2022-09-21T05:27:00;9;9;
57451;PMS7003;54295;51.224;-0.164;2022-09-21T05:29:28;12;10;
57451;PMS7003;54295;51.224;-0.164;2022-09-21T05:31:56;12;12;
57451;PMS7003;54295;51.224;-0.164;2022-09-21T05:34:38;14;14;
57451;PMS7003;54295;51.224;-0.164;2022-09-21T05:37:19;9;9;
57451;PMS7003;54295;51.224;-0.164;2022-09-21T05:40:02;11;11;
57451;PMS7003;54295;51.224;-0.164;2022-09-21T05:42:30;13;13;
57451;PMS7003;54295;51.224;-0.164;2022-09-21T05:44:58;17;16;
57451;PMS7003;54295;51.224;-0.164;2022-09-21T05:47:29;12;10;
57451;PMS7003;54295;51.224;-0.164;2022-09-21T05:50:05;11;11;
57451;PMS7003;54295;51.224;-0.164;2022-09-21T05:52:46;12;12;
57451;PMS7003;54295;51.224;-0.164;2022-09-21T05:55:23;12;11;
57451;PMS7003;54295;51.224;-0.164;2022-09-21T05:57:58;14;13;
57451;PMS7003;54295;51.224;-0.164;2022-09-21T06:00:33;11;10;
57451;PMS7003;54295;51.224;-0.164;2022-09-21T06:03:40;12;11;
57451;PMS7003;54295;51.224;-0.164;2022-09-21T06:06:08;13;12;
57451;PMS7003;54295;51.224;-0.164;2022-09-21T06:08:35;11;10;
57451;PMS7003;54295;51.224;-0.164;2022-09-21T06:11:02;13;12;
57451;PMS7003;54295;51.224;-0.164;2022-09-21T06:13:29;12;12;
57451;PMS7003;54295;51.224;-0.164;2022-09-21T06:15:56;12;11;
57451;PMS7003;54295;51.224;-0.164;2022-09-21T06:18:27;13;13;
57451;PMS7003;54295;51.224;-0.164;2022-09-21T06:20:54;10;10;
57451;PMS7003;54295;51.224;-0.164;2022-09-21T06:23:22;13;13;
57451;PMS7003;54295;51.224;-0.164;2022-09-21T06:25:50;11;11;
57451;PMS7003;54295;51.224;-0.164;2022-09-21T06:28:18;11;11;
57451;PMS7003;54295;51.224;-0.164;2022-09-21T06:30:49;13;11;
57451;PMS7003;54295;51.224;-0.164;2022-09-21T06:33:16;13;13;
57451;PMS7003;54295;51.224;-0.164;2022-09-21T06:35:43;12;12;
57451;PMS7003;54295;51.224;-0.164;2022-09-21T06:38:18;12;12;
57451;PMS7003;54295;51.224;-0.164;2022-09-21T06:40:44;11;11;
57451;PMS7003;54295;51.224;-0.164;2022-09-21T06:43:11;13;13;
57451;PMS7003;54295;51.224;-0.164;2022-09-21T06:45:39;11;11;
57451;PMS7003;54295;51.224;-0.164;2022-09-21T06:48:06;11;11;
57451;PMS7003;54295;51.224;-0.164;2022-09-21T06:50:34;14;13;
57451;PMS7003;54295;51.224;-0.164;2022-09-21T06:53:01;11;11;
57451;PMS7003;54295;51.224;-0.164;2022-09-21T06:55:29;12;12;
57451;PMS7003;54295;51.224;-0.164;2022-09-21T06:58:00;12;11;
57451;PMS7003;54295;51.224;-0.164;2022-09-21T07:00:27;13;12;
57451;PMS7003;54295;51.224;-0.164;2022-09-21T07:02:54;12;12;
57451;PMS7003;54295;51.224;-0.164;2022-09-21T07:05:21;11;11;
57451;PMS7003;54295;51.224;-0.164;2022-09-21T07:07:49;12;12;
57451;PMS7003;54295;51.224;-0.164;2022-09-21T07:10:17;9;9;
57451;PMS7003;54295;51.224;-0.164;2022-09-21T07:12:44;12;12;
57451;PMS7003;54295;51.224;-0.164;2022-09-21T07:15:11;11;11;
57451;PMS7003;54295;51.224;-0.164;2022-09-21T07:17:38;11;10;
57451;PMS7003;54295;51.224;-0.164;2022-09-21T07:20:06;10;10;
57451;PMS7003;54295;51.224;-0.164;2022-09-21T07:22:34;11;10;
57451;PMS7003;54295;51.224;-0.164;2022-09-21T07:25:02;14;13;
57451;PMS7003;54295;51.224;-0.164;2022-09-21T07:27:30;13;10;
57451;PMS7003;54295;51.224;-0.164;2022-09-21T07:29:58;12;11;
57451;PMS7003;54295;51.224;-0.164;2022-09-21T07:32:25;12;11;
57451;PMS7003;54295;51.224;-0.164;2022-09-21T07:34:52;13;12;
57451;PMS7003;54295;51.224;-0.164;2022-09-21T07:37:20;13;13;
57451;PMS7003;54295;51.224;-0.164;2022-09-21T07:39:48;14;11;
57451;PMS7003;54295;51.224;-0.164;2022-09-21T07:42:14;11;11;
57451;PMS7003;54295;51.224;-0.164;2022-09-21T07:44:42;13;13;
57451;PMS7003;54295;51.224;-0.164;2022-09-21T07:47:09;12;12;
57451;PMS7003;54295;51.224;-0.164;2022-09-21T07:49:36;12;12;
57451;PMS7003;54295;51.224;-0.164;2022-09-21T07:52:03;11;11;
57451;PMS7003;54295;51.224;-0.164;2022-09-21T07:54:31;12;11;
57451;PMS7003;54295;51.224;-0.164;2022-09-21T07:56:58;11;10;
57451;PMS7003;54295;51.224;-0.164;2022-09-21T07:59:25;9;9;
57451;PMS7003;54295;51.224;-0.164;2022-09-21T08:01:52;13;12;
57451;PMS7003;54295;51.224;-0.164;2022-09-21T08:04:19;14;12;
57451;PMS7003;54295;51.224;-0.164;2022-09-21T08:06:47;11;11;
57451;PMS7003;54295;51.224;-0.164;2022-09-21T08:09:14;16;13;
57451;PMS7003;54295;51.224;-0.164;2022-09-21T08:11:41;14;13;
57451;PMS7003;54295;51.224;-0.164;2022-09-21T08:14:08;14;14;
57451;PMS7003;54295;51.224;-0.164;2022-09-21T08:16:36;13;12;
57451;PMS7003;54295;51.224;-0.164;2022-09-21T08:19:03;15;14;
57451;PMS7003;54295;51.224;-0.164;2022-09-21T08:21:30;14;13;
57451;PMS7003;54295;51.224;-0.164;2022-09-21T08:23:57;15;13;
57451;PMS7003;54295;51.224;-0.164;2022-09-21T08:26:24;14;14;
57451;PMS7003;54295;51.224;-0.164;2022-09-21T08:28:52;15;14;
57451;PMS7003;54295;51.224;-0.164;2022-09-21T08:31:20;13;13;
57451;PMS7003;54295;51.224;-0.164;2022-09-21T08:33:48;15;14;
57451;PMS7003;54295;51.224;-0.164;2022-09-21T08:36:15;16;16;
57451;PMS7003;54295;51.224;-0.164;2022-09-21T08:38:43;13;13;
57451;PMS7003;54295;51.224;-0.164;2022-09-21T08:41:12;14;12;
57451;PMS7003;54295;51.224;-0.164;2022-09-21T08:43:43;16;14;
57451;PMS7003;54295;51.224;-0.164;2022-09-21T08:46:14;14;14;
57451;PMS7003;54295;51.224;-0.164;2022-09-21T08:48:45;14;14;
57451;PMS7003;54295;51.224;-0.164;2022-09-21T08:51:18;14;14;
57451;PMS7003;54295;51.224;-0.164;2022-09-21T08:53:49;16;15;
57451;PMS7003;54295;51.224;-0.164;2022-09-21T08:56:19;15;15;
57451;PMS7003;54295;51.224;-0.164;2022-09-21T08:58:47;15;13;
57451;PMS7003;54295;51.224;-0.164;2022-09-21T09:01:20;14;14;
57451;PMS7003;54295;51.224;-0.164;2022-09-21T09:04:03;15;14;
57451;PMS7003;54295;51.224;-0.164;2022-09-21T09:06:46;14;14;
57451;PMS7003;54295;51.224;-0.164;2022-09-21T09:09:26;16;15;
57451;PMS7003;54295;51.224;-0.164;2022-09-21T09:12:11;14;14;
57451;PMS7003;54295;51.224;-0.164;2022-09-21T09:14:51;16;15;
57451;PMS7003;54295;51.224;-0.164;2022-09-21T09:17:37;16;15;
57451;PMS7003;54295;51.224;-0.164;2022-09-21T09:20:14;18;17;
57451;PMS7003;54295;51.224;-0.164;2022-09-21T09:22:46;18;17;
57451;PMS7003;54295;51.224;-0.164;2022-09-21T09:25:22;16;16;
57451;PMS7003;54295;51.224;-0.164;2022-09-21T09:27:51;16;15;
57451;PMS7003;54295;51.224;-0.164;2022-09-21T09:30:22;15;15;
57451;PMS7003;54295;51.224;-0.164;2022-09-21T09:32:52;16;15;
57451;PMS7003;54295;51.224;-0.164;2022-09-21T09:35:25;16;15;
57451;PMS7003;54295;51.224;-0.164;2022-09-21T09:37:56;16;16;
57451;PMS7003;54295;51.224;-0.164;2022-09-21T09:40:32;13;13;
57451;PMS7003;54295;51.224;-0.164;2022-09-21T09:43:16;14;13;
57451;PMS7003;54295;51.224;-0.164;2022-09-21T09:45:59;14;14;
57451;PMS7003;54295;51.224;-0.164;2022-09-21T09:48:41;16;14;
57451;PMS7003;54295;51.224;-0.164;2022-09-21T09:51:21;13;12;
57451;PMS7003;54295;51.224;-0.164;2022-09-21T09:53:48;12;12;
57451;PMS7003;54295;51.224;-0.164;2022-09-21T09:56:25;11;11;
57451;PMS7003;54295;51.224;-0.164;2022-09-21T09:58:53;16;14;
57451;PMS7003;54295;51.224;-0.164;2022-09-21T10:01:41;14;12;
57451;PMS7003;54295;51.224;-0.164;2022-09-21T10:04:10;13;12;
57451;PMS7003;54295;51.224;-0.164;2022-09-21T10:06:38;13;13;
57451;PMS7003;54295;51.224;-0.164;2022-09-21T10:09:38;11;11;
57451;PMS7003;54295;51.224;-0.164;2022-09-21T10:12:13;15;14;
57451;PMS7003;54295;51.224;-0.164;2022-09-21T10:14:47;15;14;
57451;PMS7003;54295;51.224;-0.164;2022-09-21T10:17:16;13;12;
57451;PMS7003;54295;51.224;-0.164;2022-09-21T10:19:44;14;13;
57451;PMS7003;54295;51.224;-0.164;2022-09-21T10:22:14;11;10;
57451;PMS7003;54295;51.224;-0.164;2022-09-21T10:24:44;12;12;
57451;PMS7003;54295;51.224;-0.164;2022-09-21T10:27:15;10;10;
57451;PMS7003;54295;51.224;-0.164;2022-09-21T10:29:46;12;11;
57451;PMS7003;54295;51.224;-0.164;2022-09-21T10:32:18;10;10;
57451;PMS7003;54295;51.224;-0.164;2022-09-21T10:35:20;10;10;
57451;PMS7003;54295;51.224;-0.164;2022-09-21T10:37:48;11;10;
57451;PMS7003;54295;51.224;-0.164;2022-09-21T10:40:35;8;6;
57451;PMS7003;54295;51.224;-0.164;2022-09-21T10:43:03;8;8;
57451;PMS7003;54295;51.224;-0.164;2022-09-21T10:45:30;9;8;
57451;PMS7003;54295;51.224;-0.164;2022-09-21T10:48:06;7;6;
57451;PMS7003;54295;51.224;-0.164;2022-09-21T10:50:35;9;8;
57451;PMS7003;54295;51.224;-0.164;2022-09-21T10:53:10;7;6;
57451;PMS7003;54295;51.224;-0.164;2022-09-21T10:55:49;5;5;
57451;PMS7003;54295;51.224;-0.164;2022-09-21T10:58:22;6;5;
57451;PMS7003;54295;51.224;-0.164;2022-09-21T11:00:51;5;5;
57451;PMS7003;54295;51.224;-0.164;2022-09-21T11:03:38;7;6;
57451;PMS7003;54295;51.224;-0.164;2022-09-21T11:06:14;5;5;
57451;PMS7003;54295;51.224;-0.164;2022-09-21T11:08:49;3;3;
57451;PMS7003;54295;51.224;-0.164;2022-09-21T11:11:31;5;5;
57451;PMS7003;54295;51.224;-0.164;2022-09-21T11:14:09;4;3;
57451;PMS7003;54295;51.224;-0.164;2022-09-21T11:16:44;4;4;
57451;PMS7003;54295;51.224;-0.164;2022-09-21T11:19:20;3;3;
57451;PMS7003;54295;51.224;-0.164;2022-09-21T11:21:55;4;4;
57451;PMS7003;54295;51.224;-0.164;2022-09-21T11:24:29;1;1;
57451;PMS7003;54295;51.224;-0.164;2022-09-21T11:27:03;2;2;
57451;PMS7003;54295;51.224;-0.164;2022-09-21T11:29:37;3;2;
57451;PMS7003;54295;51.224;-0.164;2022-09-21T11:32:17;1;1;
57451;PMS7003;54295;51.224;-0.164;2022-09-21T11:35:01;1;1;
57451;PMS7003;54295;51.224;-0.164;2022-09-21T11:37:49;2;2;
57451;PMS7003;54295;51.224;-0.164;2022-09-21T11:40:27;1;1;
57451;PMS7003;54295;51.224;-0.164;2022-09-21T11:43:06;2;2;
57451;PMS7003;54295;51.224;-0.164;2022-09-21T11:45:47;2;2;
57451;PMS7003;54295;51.224;-0.164;2022-09-21T11:48:22;2;2;
57451;PMS7003;54295;51.224;-0.164;2022-09-21T11:51:04;3;3;
57451;PMS7003;54295;51.224;-0.164;2022-09-21T11:53:55;2;2;
57451;PMS7003;54295;51.224;-0.164;2022-09-21T11:56:40;3;3;
57451;PMS7003;54295;51.224;-0.164;2022-09-21T11:59:24;3;2;
57451;PMS7003;54295;51.224;-0.164;2022-09-21T12:02:14;2;1;
57451;PMS7003;54295;51.224;-0.164;2022-09-21T12:04:53;2;2;
57451;PMS7003;54295;51.224;-0.164;2022-09-21T12:07:31;3;2;
57451;PMS7003;54295;51.224;-0.164;2022-09-21T12:10:15;1;1;
57451;PMS7003;54295;51.224;-0.164;2022-09-21T12:13:04;2;2;
57451;PMS7003;54295;51.224;-0.164;2022-09-21T12:15:41;2;1;
57451;PMS7003;54295;51.224;-0.164;2022-09-21T12:18:16;1;1;
57451;PMS7003;54295;51.224;-0.164;2022-09-21T12:20:50;2;2;
57451;PMS7003;54295;51.224;-0.164;2022-09-21T12:23:26;3;2;
57451;PMS7003;54295;51.224;-0.164;2022-09-21T12:25:58;1;1;
57451;PMS7003;54295;51.224;-0.164;2022-09-21T12:28:29;2;2;
57451;PMS7003;54295;51.224;-0.164;2022-09-21T12:31:02;2;2;
57451;PMS7003;54295;51.224;-0.164;2022-09-21T12:33:33;1;1;
57451;PMS7003;54295;51.224;-0.164;2022-09-21T12:36:07;2;2;
57451;PMS7003;54295;51.224;-0.164;2022-09-21T12:38:40;2;2;
57451;PMS7003;54295;51.224;-0.164;2022-09-21T12:41:13;1;1;
57451;PMS7003;54295;51.224;-0.164;2022-09-21T12:43:47;4;2;
57451;PMS7003;54295;51.224;-0.164;2022-09-21T12:46:19;3;3;
57451;PMS7003;54295;51.224;-0.164;2022-09-21T12:48:50;3;3;
57451;PMS7003;54295;51.224;-0.164;2022-09-21T12:51:19;3;3;
57451;PMS7003;54295;51.224;-0.164;2022-09-21T12:53:51;3;3;
57451;PMS7003;54295;51.224;-0.164;2022-09-21T12:56:23;3;2;
57451;PMS7003;54295;51.224;-0.164;2022-09-21T12:59:03;3;2;
57451;PMS7003;54295;51.224;-0.164;2022-09-21T13:01:40;2;2;
57451;PMS7003;54295;51.224;-0.164;2022-09-21T13:04:18;3;3;
57451;PMS7003;54295;51.224;-0.164;2022-09-21T13:07:06;1;1;
57451;PMS7003;54295;51.224;-0.164;2022-09-21T13:09:49;3;3;
57451;PMS7003;54295;51.224;-0.164;2022-09-21T13:12:19;2;2;
57451;PMS7003;54295;51.224;-0.164;2022-09-21T13:14:50;2;2;
57451;PMS7003;54295;51.224;-0.164;2022-09-21T13:17:22;4;4;
57451;PMS7003;54295;51.224;-0.164;2022-09-21T13:19:57;3;3;
57451;PMS7003;54295;51.224;-0.164;2022-09-21T13:22:29;4;3;
57451;PMS7003;54295;51.224;-0.164;2022-09-21T13:25:00;3;3;
57451;PMS7003;54295;51.224;-0.164;2022-09-21T13:29:44;3;3;
57451;PMS7003;54295;51.224;-0.164;2022-09-21T13:32:26;5;4;
57451;PMS7003;54295;51.224;-0.164;2022-09-21T13:35:47;3;3;
57451;PMS7003;54295;51.224;-0.164;2022-09-21T13:38:22;3;3;
57451;PMS7003;54295;51.224;-0.164;2022-09-21T13:40:55;3;3;
57451;PMS7003;54295;51.224;-0.164;2022-09-21T13:43:43;4;3;
57451;PMS7003;54295;51.224;-0.164;2022-09-21T13:46:45;2;2;
57451;PMS7003;54295;51.224;-0.164;2022-09-21T13:49:18;3;3;
57451;PMS7003;54295;51.224;-0.164;2022-09-21T13:51:52;3;3;
57451;PMS7003;54295;51.224;-0.164;2022-09-21T13:54:23;4;4;
57451;PMS7003;54295;51.224;-0.164;2022-09-21T13:56:57;3;3;
57451;PMS7003;54295;51.224;-0.164;2022-09-21T13:59:31;5;5;
57451;PMS7003;54295;51.224;-0.164;2022-09-21T14:01:59;3;3;
57451;PMS7003;54295;51.224;-0.164;2022-09-21T14:04:30;3;3;
57451;PMS7003;54295;51.224;-0.164;2022-09-21T14:07:01;3;3;
57451;PMS7003;54295;51.224;-0.164;2022-09-21T14:09:33;6;5;
57451;PMS7003;54295;51.224;-0.164;2022-09-21T14:12:09;3;3;
57451;PMS7003;54295;51.224;-0.164;2022-09-21T14:15:06;3;3;
57451;PMS7003;54295;51.224;-0.164;2022-09-21T14:17:37;2;2;
57451;PMS7003;54295;51.224;-0.164;2022-09-21T14:20:23;1;1;
57451;PMS7003;54295;51.224;-0.164;2022-09-21T14:23:22;4;4;
57451;PMS7003;54295;51.224;-0.164;2022-09-21T14:25:53;3;3;
57451;PMS7003;54295;51.224;-0.164;2022-09-21T14:28:38;2;2;
57451;PMS7003;54295;51.224;-0.164;2022-09-21T14:31:13;3;2;
57451;PMS7003;54295;51.224;-0.164;2022-09-21T14:33:44;2;2;
57451;PMS7003;54295;51.224;-0.164;2022-09-21T14:36:15;1;1;
57451;PMS7003;54295;51.224;-0.164;2022-09-21T14:38:46;3;3;
57451;PMS7003;54295;51.224;-0.164;2022-09-21T14:41:18;3;3;
57451;PMS7003;54295;51.224;-0.164;2022-09-21T14:43:48;3;2;
57451;PMS7003;54295;51.224;-0.164;2022-09-21T14:46:22;3;3;
57451;PMS7003;54295;51.224;-0.164;2022-09-21T14:49:04;3;3;
57451;PMS7003;54295;51.224;-0.164;2022-09-21T14:51:45;2;2;
57451;PMS7003;54295;51.224;-0.164;2022-09-21T14:54:26;4;4;
57451;PMS7003;54295;51.224;-0.164;2022-09-21T14:57:07;3;3;
57451;PMS7003;54295;51.224;-0.164;2022-09-21T14:59:52;7;6;
57451;PMS7003;54295;51.224;-0.164;2022-09-21T15:02:29;5;5;
57451;PMS7003;54295;51.224;-0.164;2022-09-21T15:05:02;3;3;
57451;PMS7003;54295;51.224;-0.164;2022-09-21T15:07:41;5;4;
57451;PMS7003;54295;51.224;-0.164;2022-09-21T15:10:19;4;3;
57451;PMS7003;54295;51.224;-0.164;2022-09-21T15:12:51;4;4;
57451;PMS7003;54295;51.224;-0.164;2022-09-21T15:15:30;5;4;
57451;PMS7003;54295;51.224;-0.164;2022-09-21T15:18:11;2;2;
57451;PMS7003;54295;51.224;-0.164;2022-09-21T15:20:41;3;3;
57451;PMS7003;54295;51.224;-0.164;2022-09-21T15:23:13;3;3;
57451;PMS7003;54295;51.224;-0.164;2022-09-21T15:25:45;3;3;
57451;PMS7003;54295;51.224;-0.164;2022-09-21T15:28:21;3;3;
57451;PMS7003;54295;51.224;-0.164;2022-09-21T15:30:48;3;2;
57451;PMS7003;54295;51.224;-0.164;2022-09-21T15:33:15;2;2;
57451;PMS7003;54295;51.224;-0.164;2022-09-21T15:35:44;0;0;
57451;PMS7003;54295;51.224;-0.164;2022-09-21T15:38:24;2;2;
57451;PMS7003;54295;51.224;-0.164;2022-09-21T15:40:52;3;2;
57451;PMS7003;54295;51.224;-0.164;2022-09-21T15:43:19;1;0;
57451;PMS7003;54295;51.224;-0.164;2022-09-21T15:45:48;3;2;
57451;PMS7003;54295;51.224;-0.164;2022-09-21T15:48:16;2;2;
57451;PMS7003;54295;51.224;-0.164;2022-09-21T15:50:44;3;3;
57451;PMS7003;54295;51.224;-0.164;2022-09-21T15:53:17;2;2;
57451;PMS7003;54295;51.224;-0.164;2022-09-21T15:55:47;2;2;
57451;PMS7003;54295;51.224;-0.164;2022-09-21T15:58:19;1;1;
57451;PMS7003;54295;51.224;-0.164;2022-09-21T16:00:52;3;3;
57451;PMS7003;54295;51.224;-0.164;2022-09-21T16:03:21;3;3;
57451;PMS7003;54295;51.224;-0.164;2022-09-21T16:05:50;1;1;
57451;PMS7003;54295;51.224;-0.164;2022-09-21T16:08:25;2;2;
57451;PMS7003;54295;51.224;-0.164;2022-09-21T16:11:31;2;2;
57451;PMS7003;54295;51.224;-0.164;2022-09-21T16:14:02;3;3;
57451;PMS7003;54295;51.224;-0.164;2022-09-21T16:17:04;5;4;
57451;PMS7003;54295;51.224;-0.164;2022-09-21T16:20:20;3;3;
57451;PMS7003;54295;51.224;-0.164;2022-09-21T16:22:49;3;3;
57451;PMS7003;54295;51.224;-0.164;2022-09-21T16:25:20;2;2;
57451;PMS7003;54295;51.224;-0.164;2022-09-21T16:27:51;2;1;
57451;PMS7003;54295;51.224;-0.164;2022-09-21T16:30:52;2;2;
57451;PMS7003;54295;51.224;-0.164;2022-09-21T16:33:37;2;2;
57451;PMS7003;54295;51.224;-0.164;2022-09-21T16:36:39;2;2;
57451;PMS7003;54295;51.224;-0.164;2022-09-21T16:39:09;4;4;
57451;PMS7003;54295;51.224;-0.164;2022-09-21T16:41:41;4;4;
57451;PMS7003;54295;51.224;-0.164;2022-09-21T16:44:11;3;3;
57451;PMS7003;54295;51.224;-0.164;2022-09-21T16:46:39;3;3;
57451;PMS7003;54295;51.224;-0.164;2022-09-21T16:49:07;4;4;
57451;PMS7003;54295;51.224;-0.164;2022-09-21T16:51:39;5;5;
57451;PMS7003;54295;51.224;-0.164;2022-09-21T16:54:06;5;5;
57451;PMS7003;54295;51.224;-0.164;2022-09-21T16:56:33;5;5;
57451;PMS7003;54295;51.224;-0.164;2022-09-21T16:59:00;4;4;
57451;PMS7003;54295;51.224;-0.164;2022-09-21T17:01:30;2;2;